sensor_id;sensor_type;location;lat;lon;timestamp;P1;durP1;ratioP1;P2;durP2;ratioP2
66874;SDS011;53784;52.630;4.896;2022-07-18T00:01:02;0.10;;;0.10;;
66874;SDS011;53784;52.630;4.896;2022-07-18T00:03:28;0.35;;;0.35;;
66874;SDS011;53784;52.630;4.896;2022-07-18T00:05:53;0.20;;;0.20;;
66874;SDS011;53784;52.630;4.896;2022-07-18T00:08:19;0.10;;;0.10;;
66874;SDS011;53784;52.630;4.896;2022-07-18T00:10:44;0.10;;;0.10;;
66874;SDS011;53784;52.630;4.896;2022-07-18T00:13:09;0.20;;;0.20;;
66874;SDS011;53784;52.630;4.896;2022-07-18T00:15:35;0.10;;;0.10;;
66874;SDS011;53784;52.630;4.896;2022-07-18T00:18:01;0.10;;;0.10;;
66874;SDS011;53784;52.630;4.896;2022-07-18T00:20:26;0.10;;;0.10;;
66874;SDS011;53784;52.630;4.896;2022-07-18T00:22:51;0.20;;;0.20;;
66874;SDS011;53784;52.630;4.896;2022-07-18T00:25:17;0.10;;;0.10;;
66874;SDS011;53784;52.630;4.896;2022-07-18T00:27:42;0.43;;;0.43;;
66874;SDS011;53784;52.630;4.896;2022-07-18T00:30:08;0.10;;;0.10;;
66874;SDS011;53784;52.630;4.896;2022-07-18T00:32:34;0.30;;;0.30;;
66874;SDS011;53784;52.630;4.896;2022-07-18T00:34:59;0.10;;;0.10;;
66874;SDS011;53784;52.630;4.896;2022-07-18T00:37:24;0.10;;;0.10;;
66874;SDS011;53784;52.630;4.896;2022-07-18T00:39:49;0.10;;;0.10;;
66874;SDS011;53784;52.630;4.896;2022-07-18T00:42:15;0.17;;;0.17;;
66874;SDS011;53784;52.630;4.896;2022-07-18T00:44:40;0.10;;;0.10;;
66874;SDS011;53784;52.630;4.896;2022-07-18T00:47:05;0.10;;;0.10;;
66874;SDS011;53784;52.630;4.896;2022-07-18T00:49:31;0.10;;;0.10;;
66874;SDS011;53784;52.630;4.896;2022-07-18T00:51:56;0.38;;;0.38;;
66874;SDS011;53784;52.630;4.896;2022-07-18T00:54:22;0.10;;;0.10;;
66874;SDS011;53784;52.630;4.896;2022-07-18T00:56:48;0.20;;;0.20;;
66874;SDS011;53784;52.630;4.896;2022-07-18T00:59:14;0.20;;;0.20;;
66874;SDS011;53784;52.630;4.896;2022-07-18T01:01:39;0.80;;;0.32;;
66874;SDS011;53784;52.630;4.896;2022-07-18T01:04:12;0.40;;;0.20;;
66874;SDS011;53784;52.630;4.896;2022-07-18T01:06:38;0.10;;;0.10;;
66874;SDS011;53784;52.630;4.896;2022-07-18T01:09:03;0.10;;;0.10;;
66874;SDS011;53784;52.630;4.896;2022-07-18T01:11:28;0.20;;;0.20;;
66874;SDS011;53784;52.630;4.896;2022-07-18T01:13:54;0.10;;;0.10;;
66874;SDS011;53784;52.630;4.896;2022-07-18T01:16:20;0.10;;;0.10;;
66874;SDS011;53784;52.630;4.896;2022-07-18T01:18:46;0.32;;;0.20;;
66874;SDS011;53784;52.630;4.896;2022-07-18T01:21:12;0.10;;;0.10;;
66874;SDS011;53784;52.630;4.896;2022-07-18T01:23:37;0.10;;;0.10;;
66874;SDS011;53784;52.630;4.896;2022-07-18T01:26:03;0.10;;;0.10;;
66874;SDS011;53784;52.630;4.896;2022-07-18T01:28:28;0.10;;;0.10;;
66874;SDS011;53784;52.630;4.896;2022-07-18T01:30:53;0.10;;;0.10;;
66874;SDS011;53784;52.630;4.896;2022-07-18T01:33:19;0.10;;;0.10;;
66874;SDS011;53784;52.630;4.896;2022-07-18T01:35:44;0.13;;;0.13;;
66874;SDS011;53784;52.630;4.896;2022-07-18T01:38:09;0.17;;;0.17;;
66874;SDS011;53784;52.630;4.896;2022-07-18T01:40:35;0.10;;;0.10;;
66874;SDS011;53784;52.630;4.896;2022-07-18T01:43:00;0.20;;;0.20;;
66874;SDS011;53784;52.630;4.896;2022-07-18T01:45:25;0.20;;;0.20;;
66874;SDS011;53784;52.630;4.896;2022-07-18T01:47:50;0.63;;;0.63;;
66874;SDS011;53784;52.630;4.896;2022-07-18T01:50:16;0.20;;;0.10;;
66874;SDS011;53784;52.630;4.896;2022-07-18T01:52:42;0.10;;;0.10;;
66874;SDS011;53784;52.630;4.896;2022-07-18T01:55:07;0.10;;;0.10;;
66874;SDS011;53784;52.630;4.896;2022-07-18T01:57:34;0.10;;;0.10;;
66874;SDS011;53784;52.630;4.896;2022-07-18T02:00:00;0.20;;;0.20;;
66874;SDS011;53784;52.630;4.896;2022-07-18T02:02:25;0.10;;;0.10;;
66874;SDS011;53784;52.630;4.896;2022-07-18T02:04:50;0.15;;;0.15;;
66874;SDS011;53784;52.630;4.896;2022-07-18T02:07:35;0.13;;;0.13;;
66874;SDS011;53784;52.630;4.896;2022-07-18T02:10:09;0.55;;;0.20;;
66874;SDS011;53784;52.630;4.896;2022-07-18T02:12:37;0.10;;;0.10;;
66874;SDS011;53784;52.630;4.896;2022-07-18T02:15:03;0.60;;;0.17;;
66874;SDS011;53784;52.630;4.896;2022-07-18T02:17:29;0.10;;;0.10;;
66874;SDS011;53784;52.630;4.896;2022-07-18T02:19:55;0.10;;;0.10;;
66874;SDS011;53784;52.630;4.896;2022-07-18T02:22:20;0.43;;;0.35;;
66874;SDS011;53784;52.630;4.896;2022-07-18T02:24:45;0.40;;;0.15;;
66874;SDS011;53784;52.630;4.896;2022-07-18T02:27:11;1.15;;;0.50;;
66874;SDS011;53784;52.630;4.896;2022-07-18T02:29:36;0.10;;;0.10;;
66874;SDS011;53784;52.630;4.896;2022-07-18T02:32:02;0.10;;;0.10;;
66874;SDS011;53784;52.630;4.896;2022-07-18T02:34:28;0.10;;;0.10;;
66874;SDS011;53784;52.630;4.896;2022-07-18T02:36:53;0.10;;;0.10;;
66874;SDS011;53784;52.630;4.896;2022-07-18T02:39:18;0.10;;;0.10;;
66874;SDS011;53784;52.630;4.896;2022-07-18T02:41:44;0.10;;;0.10;;
66874;SDS011;53784;52.630;4.896;2022-07-18T02:44:09;0.47;;;0.40;;
66874;SDS011;53784;52.630;4.896;2022-07-18T02:46:35;0.10;;;0.10;;
66874;SDS011;53784;52.630;4.896;2022-07-18T02:49:00;0.10;;;0.10;;
66874;SDS011;53784;52.630;4.896;2022-07-18T02:51:26;1.65;;;0.10;;
66874;SDS011;53784;52.630;4.896;2022-07-18T02:53:51;0.10;;;0.10;;
66874;SDS011;53784;52.630;4.896;2022-07-18T02:56:17;0.25;;;0.25;;
66874;SDS011;53784;52.630;4.896;2022-07-18T02:58:42;0.13;;;0.10;;
66874;SDS011;53784;52.630;4.896;2022-07-18T03:01:07;0.10;;;0.10;;
66874;SDS011;53784;52.630;4.896;2022-07-18T03:03:32;0.28;;;0.20;;
66874;SDS011;53784;52.630;4.896;2022-07-18T03:05:58;0.10;;;0.10;;
66874;SDS011;53784;52.630;4.896;2022-07-18T03:08:23;0.10;;;0.10;;
66874;SDS011;53784;52.630;4.896;2022-07-18T03:10:48;0.20;;;0.20;;
66874;SDS011;53784;52.630;4.896;2022-07-18T03:13:14;0.10;;;0.10;;
66874;SDS011;53784;52.630;4.896;2022-07-18T03:15:39;0.10;;;0.10;;
66874;SDS011;53784;52.630;4.896;2022-07-18T03:18:05;0.10;;;0.10;;
66874;SDS011;53784;52.630;4.896;2022-07-18T03:20:30;0.10;;;0.10;;
66874;SDS011;53784;52.630;4.896;2022-07-18T03:22:56;0.15;;;0.15;;
66874;SDS011;53784;52.630;4.896;2022-07-18T03:25:21;0.10;;;0.10;;
66874;SDS011;53784;52.630;4.896;2022-07-18T03:27:47;0.10;;;0.10;;
66874;SDS011;53784;52.630;4.896;2022-07-18T03:30:12;0.40;;;0.30;;
66874;SDS011;53784;52.630;4.896;2022-07-18T03:32:38;0.20;;;0.20;;
66874;SDS011;53784;52.630;4.896;2022-07-18T03:35:03;0.10;;;0.10;;
66874;SDS011;53784;52.630;4.896;2022-07-18T03:37:29;0.10;;;0.10;;
66874;SDS011;53784;52.630;4.896;2022-07-18T03:39:54;0.38;;;0.20;;
66874;SDS011;53784;52.630;4.896;2022-07-18T03:42:20;0.10;;;0.10;;
66874;SDS011;53784;52.630;4.896;2022-07-18T03:44:45;0.10;;;0.10;;
66874;SDS011;53784;52.630;4.896;2022-07-18T03:47:10;0.10;;;0.10;;
66874;SDS011;53784;52.630;4.896;2022-07-18T03:49:36;0.20;;;0.20;;
66874;SDS011;53784;52.630;4.896;2022-07-18T03:52:01;0.10;;;0.10;;
66874;SDS011;53784;52.630;4.896;2022-07-18T03:54:27;0.20;;;0.20;;
66874;SDS011;53784;52.630;4.896;2022-07-18T03:56:52;0.10;;;0.10;;
66874;SDS011;53784;52.630;4.896;2022-07-18T03:59:17;0.10;;;0.10;;
66874;SDS011;53784;52.630;4.896;2022-07-18T04:01:42;0.10;;;0.10;;
66874;SDS011;53784;52.630;4.896;2022-07-18T04:04:08;0.45;;;0.30;;
66874;SDS011;53784;52.630;4.896;2022-07-18T04:06:33;0.10;;;0.10;;
66874;SDS011;53784;52.630;4.896;2022-07-18T04:08:58;0.10;;;0.10;;
66874;SDS011;53784;52.630;4.896;2022-07-18T04:11:24;0.47;;;0.38;;
66874;SDS011;53784;52.630;4.896;2022-07-18T04:13:50;0.10;;;0.10;;
66874;SDS011;53784;52.630;4.896;2022-07-18T04:16:16;0.10;;;0.10;;
66874;SDS011;53784;52.630;4.896;2022-07-18T04:18:41;0.10;;;0.10;;
66874;SDS011;53784;52.630;4.896;2022-07-18T04:21:07;0.10;;;0.10;;
66874;SDS011;53784;52.630;4.896;2022-07-18T04:23:32;0.10;;;0.10;;
66874;SDS011;53784;52.630;4.896;2022-07-18T04:25:57;0.55;;;0.52;;
66874;SDS011;53784;52.630;4.896;2022-07-18T04:28:23;0.10;;;0.10;;
66874;SDS011;53784;52.630;4.896;2022-07-18T04:30:48;0.17;;;0.17;;
66874;SDS011;53784;52.630;4.896;2022-07-18T04:33:13;0.10;;;0.10;;
66874;SDS011;53784;52.630;4.896;2022-07-18T04:35:39;0.20;;;0.17;;
66874;SDS011;53784;52.630;4.896;2022-07-18T04:38:04;0.10;;;0.10;;
66874;SDS011;53784;52.630;4.896;2022-07-18T04:40:31;0.10;;;0.10;;
66874;SDS011;53784;52.630;4.896;2022-07-18T04:42:56;0.10;;;0.10;;
66874;SDS011;53784;52.630;4.896;2022-07-18T04:45:22;0.20;;;0.20;;
66874;SDS011;53784;52.630;4.896;2022-07-18T04:47:51;0.10;;;0.10;;
66874;SDS011;53784;52.630;4.896;2022-07-18T04:50:17;0.10;;;0.10;;
66874;SDS011;53784;52.630;4.896;2022-07-18T04:52:45;0.20;;;0.20;;
66874;SDS011;53784;52.630;4.896;2022-07-18T04:55:11;0.10;;;0.10;;
66874;SDS011;53784;52.630;4.896;2022-07-18T04:57:38;0.10;;;0.10;;
66874;SDS011;53784;52.630;4.896;2022-07-18T05:00:05;0.10;;;0.10;;
66874;SDS011;53784;52.630;4.896;2022-07-18T05:02:38;0.90;;;0.60;;
66874;SDS011;53784;52.630;4.896;2022-07-18T05:05:05;0.40;;;0.35;;
66874;SDS011;53784;52.630;4.896;2022-07-18T05:07:31;0.13;;;0.13;;
66874;SDS011;53784;52.630;4.896;2022-07-18T05:09:56;0.13;;;0.13;;
66874;SDS011;53784;52.630;4.896;2022-07-18T05:12:21;0.47;;;0.30;;
66874;SDS011;53784;52.630;4.896;2022-07-18T05:14:48;0.10;;;0.10;;
66874;SDS011;53784;52.630;4.896;2022-07-18T05:17:14;0.17;;;0.17;;
66874;SDS011;53784;52.630;4.896;2022-07-18T05:19:39;0.10;;;0.10;;
66874;SDS011;53784;52.630;4.896;2022-07-18T05:22:04;0.43;;;0.35;;
66874;SDS011;53784;52.630;4.896;2022-07-18T05:24:29;0.65;;;0.65;;
66874;SDS011;53784;52.630;4.896;2022-07-18T05:26:55;0.30;;;0.30;;
66874;SDS011;53784;52.630;4.896;2022-07-18T05:29:20;0.30;;;0.30;;
66874;SDS011;53784;52.630;4.896;2022-07-18T05:31:45;0.10;;;0.10;;
66874;SDS011;53784;52.630;4.896;2022-07-18T05:34:11;0.28;;;0.28;;
66874;SDS011;53784;52.630;4.896;2022-07-18T05:36:36;0.38;;;0.20;;
66874;SDS011;53784;52.630;4.896;2022-07-18T05:39:02;0.20;;;0.20;;
66874;SDS011;53784;52.630;4.896;2022-07-18T05:41:28;0.20;;;0.20;;
66874;SDS011;53784;52.630;4.896;2022-07-18T05:43:53;0.10;;;0.10;;
66874;SDS011;53784;52.630;4.896;2022-07-18T05:46:18;0.10;;;0.10;;
66874;SDS011;53784;52.630;4.896;2022-07-18T05:48:44;0.38;;;0.38;;
66874;SDS011;53784;52.630;4.896;2022-07-18T05:51:09;0.20;;;0.20;;
66874;SDS011;53784;52.630;4.896;2022-07-18T05:53:35;0.20;;;0.20;;
66874;SDS011;53784;52.630;4.896;2022-07-18T05:56:00;0.22;;;0.22;;
66874;SDS011;53784;52.630;4.896;2022-07-18T05:58:26;0.15;;;0.15;;
66874;SDS011;53784;52.630;4.896;2022-07-18T06:00:51;0.20;;;0.20;;
66874;SDS011;53784;52.630;4.896;2022-07-18T06:03:16;0.45;;;0.20;;
66874;SDS011;53784;52.630;4.896;2022-07-18T06:05:42;0.22;;;0.22;;
66874;SDS011;53784;52.630;4.896;2022-07-18T06:08:07;0.20;;;0.20;;
66874;SDS011;53784;52.630;4.896;2022-07-18T06:10:32;0.20;;;0.20;;
66874;SDS011;53784;52.630;4.896;2022-07-18T06:12:58;0.20;;;0.20;;
66874;SDS011;53784;52.630;4.896;2022-07-18T06:15:23;0.55;;;0.55;;
66874;SDS011;53784;52.630;4.896;2022-07-18T06:17:49;0.90;;;0.60;;
66874;SDS011;53784;52.630;4.896;2022-07-18T06:20:15;0.20;;;0.20;;
66874;SDS011;53784;52.630;4.896;2022-07-18T06:22:40;0.68;;;0.40;;
66874;SDS011;53784;52.630;4.896;2022-07-18T06:25:06;0.30;;;0.30;;
66874;SDS011;53784;52.630;4.896;2022-07-18T06:27:31;0.20;;;0.20;;
66874;SDS011;53784;52.630;4.896;2022-07-18T06:29:57;0.30;;;0.30;;
66874;SDS011;53784;52.630;4.896;2022-07-18T06:32:24;0.28;;;0.28;;
66874;SDS011;53784;52.630;4.896;2022-07-18T06:34:49;0.43;;;0.32;;
66874;SDS011;53784;52.630;4.896;2022-07-18T06:37:15;0.30;;;0.30;;
66874;SDS011;53784;52.630;4.896;2022-07-18T06:39:41;0.20;;;0.20;;
66874;SDS011;53784;52.630;4.896;2022-07-18T06:42:06;0.20;;;0.20;;
66874;SDS011;53784;52.630;4.896;2022-07-18T06:44:31;0.20;;;0.20;;
66874;SDS011;53784;52.630;4.896;2022-07-18T06:46:57;0.20;;;0.20;;
66874;SDS011;53784;52.630;4.896;2022-07-18T06:49:23;0.20;;;0.20;;
66874;SDS011;53784;52.630;4.896;2022-07-18T06:51:50;0.40;;;0.40;;
66874;SDS011;53784;52.630;4.896;2022-07-18T06:54:16;0.30;;;0.30;;
66874;SDS011;53784;52.630;4.896;2022-07-18T06:56:41;0.30;;;0.30;;
66874;SDS011;53784;52.630;4.896;2022-07-18T06:59:06;0.37;;;0.30;;
66874;SDS011;53784;52.630;4.896;2022-07-18T07:01:31;0.50;;;0.50;;
66874;SDS011;53784;52.630;4.896;2022-07-18T07:03:57;0.40;;;0.40;;
66874;SDS011;53784;52.630;4.896;2022-07-18T07:06:22;0.43;;;0.40;;
66874;SDS011;53784;52.630;4.896;2022-07-18T07:08:47;0.40;;;0.40;;
66874;SDS011;53784;52.630;4.896;2022-07-18T07:11:13;0.30;;;0.30;;
66874;SDS011;53784;52.630;4.896;2022-07-18T07:13:38;0.35;;;0.32;;
66874;SDS011;53784;52.630;4.896;2022-07-18T07:16:04;0.50;;;0.40;;
66874;SDS011;53784;52.630;4.896;2022-07-18T07:18:29;0.40;;;0.40;;
66874;SDS011;53784;52.630;4.896;2022-07-18T07:20:54;0.50;;;0.40;;
66874;SDS011;53784;52.630;4.896;2022-07-18T07:23:20;0.50;;;0.40;;
66874;SDS011;53784;52.630;4.896;2022-07-18T07:25:45;0.70;;;0.50;;
66874;SDS011;53784;52.630;4.896;2022-07-18T07:28:10;0.70;;;0.50;;
66874;SDS011;53784;52.630;4.896;2022-07-18T07:30:35;0.77;;;0.50;;
66874;SDS011;53784;52.630;4.896;2022-07-18T07:33:01;0.93;;;0.60;;
66874;SDS011;53784;52.630;4.896;2022-07-18T07:35:29;0.75;;;0.50;;
66874;SDS011;53784;52.630;4.896;2022-07-18T07:37:55;0.80;;;0.50;;
66874;SDS011;53784;52.630;4.896;2022-07-18T07:40:22;0.88;;;0.60;;
66874;SDS011;53784;52.630;4.896;2022-07-18T07:42:49;0.85;;;0.50;;
66874;SDS011;53784;52.630;4.896;2022-07-18T07:45:14;1.33;;;0.93;;
66874;SDS011;53784;52.630;4.896;2022-07-18T07:47:41;1.00;;;0.60;;
66874;SDS011;53784;52.630;4.896;2022-07-18T07:50:07;1.00;;;0.60;;
66874;SDS011;53784;52.630;4.896;2022-07-18T07:52:33;1.00;;;0.60;;
66874;SDS011;53784;52.630;4.896;2022-07-18T07:54:59;1.10;;;0.60;;
66874;SDS011;53784;52.630;4.896;2022-07-18T07:57:24;1.20;;;0.60;;
66874;SDS011;53784;52.630;4.896;2022-07-18T07:59:50;1.30;;;0.80;;
66874;SDS011;53784;52.630;4.896;2022-07-18T08:02:16;1.23;;;0.70;;
66874;SDS011;53784;52.630;4.896;2022-07-18T08:04:42;1.48;;;0.93;;
66874;SDS011;53784;52.630;4.896;2022-07-18T08:07:07;1.27;;;0.70;;
66874;SDS011;53784;52.630;4.896;2022-07-18T08:09:33;1.38;;;0.80;;
66874;SDS011;53784;52.630;4.896;2022-07-18T08:11:58;1.17;;;0.80;;
66874;SDS011;53784;52.630;4.896;2022-07-18T08:14:24;1.10;;;0.70;;
66874;SDS011;53784;52.630;4.896;2022-07-18T08:16:49;0.90;;;0.57;;
66874;SDS011;53784;52.630;4.896;2022-07-18T08:19:14;0.90;;;0.60;;
66874;SDS011;53784;52.630;4.896;2022-07-18T08:21:40;1.00;;;0.60;;
66874;SDS011;53784;52.630;4.896;2022-07-18T08:24:05;1.10;;;0.60;;
66874;SDS011;53784;52.630;4.896;2022-07-18T08:26:31;1.03;;;0.60;;
66874;SDS011;53784;52.630;4.896;2022-07-18T08:28:56;1.48;;;0.80;;
66874;SDS011;53784;52.630;4.896;2022-07-18T08:31:22;1.00;;;0.60;;
66874;SDS011;53784;52.630;4.896;2022-07-18T08:33:48;1.10;;;0.60;;
66874;SDS011;53784;52.630;4.896;2022-07-18T08:36:14;1.05;;;0.60;;
66874;SDS011;53784;52.630;4.896;2022-07-18T08:38:39;1.20;;;0.70;;
66874;SDS011;53784;52.630;4.896;2022-07-18T08:41:04;1.27;;;0.67;;
66874;SDS011;53784;52.630;4.896;2022-07-18T08:43:30;1.30;;;0.70;;
66874;SDS011;53784;52.630;4.896;2022-07-18T08:45:57;1.53;;;0.80;;
66874;SDS011;53784;52.630;4.896;2022-07-18T08:48:27;1.40;;;0.70;;
66874;SDS011;53784;52.630;4.896;2022-07-18T08:50:52;1.50;;;0.80;;
66874;SDS011;53784;52.630;4.896;2022-07-18T08:53:18;1.50;;;0.80;;
66874;SDS011;53784;52.630;4.896;2022-07-18T08:55:44;1.60;;;0.90;;
66874;SDS011;53784;52.630;4.896;2022-07-18T08:58:10;1.60;;;0.90;;
66874;SDS011;53784;52.630;4.896;2022-07-18T09:00:37;1.70;;;1.10;;
66874;SDS011;53784;52.630;4.896;2022-07-18T09:03:03;1.70;;;1.10;;
66874;SDS011;53784;52.630;4.896;2022-07-18T09:05:29;1.80;;;1.20;;
66874;SDS011;53784;52.630;4.896;2022-07-18T09:08:11;1.80;;;1.20;;
66874;SDS011;53784;52.630;4.896;2022-07-18T09:10:54;1.70;;;1.00;;
66874;SDS011;53784;52.630;4.896;2022-07-18T09:13:22;1.40;;;0.80;;
66874;SDS011;53784;52.630;4.896;2022-07-18T09:21:00;1.20;;;0.70;;
66874;SDS011;53784;52.630;4.896;2022-07-18T09:23:29;1.40;;;0.73;;
66874;SDS011;53784;52.630;4.896;2022-07-18T09:25:56;1.55;;;0.80;;
66874;SDS011;53784;52.630;4.896;2022-07-18T09:28:21;1.60;;;0.90;;
66874;SDS011;53784;52.630;4.896;2022-07-18T09:30:46;1.60;;;0.97;;
66874;SDS011;53784;52.630;4.896;2022-07-18T09:33:11;1.70;;;1.20;;
66874;SDS011;53784;52.630;4.896;2022-07-18T09:35:44;1.90;;;1.40;;
66874;SDS011;53784;52.630;4.896;2022-07-18T09:38:10;1.98;;;1.55;;
66874;SDS011;53784;52.630;4.896;2022-07-18T09:40:38;2.13;;;1.80;;
66874;SDS011;53784;52.630;4.896;2022-07-18T09:43:05;2.13;;;1.90;;
66874;SDS011;53784;52.630;4.896;2022-07-18T09:45:36;2.20;;;1.90;;
66874;SDS011;53784;52.630;4.896;2022-07-18T09:48:11;2.20;;;2.00;;
66874;SDS011;53784;52.630;4.896;2022-07-18T09:50:41;2.30;;;2.10;;
66874;SDS011;53784;52.630;4.896;2022-07-18T09:53:11;2.50;;;2.30;;
66874;SDS011;53784;52.630;4.896;2022-07-18T09:55:47;2.70;;;2.50;;
66874;SDS011;53784;52.630;4.896;2022-07-18T09:58:15;3.10;;;2.90;;
66874;SDS011;53784;52.630;4.896;2022-07-18T10:00:42;3.38;;;3.08;;
66874;SDS011;53784;52.630;4.896;2022-07-18T10:03:08;3.75;;;3.45;;
66874;SDS011;53784;52.630;4.896;2022-07-18T10:05:34;3.65;;;3.35;;
66874;SDS011;53784;52.630;4.896;2022-07-18T10:08:02;2.92;;;2.72;;
66874;SDS011;53784;52.630;4.896;2022-07-18T10:10:29;3.10;;;2.90;;
66874;SDS011;53784;52.630;4.896;2022-07-18T10:12:56;3.60;;;3.30;;
66874;SDS011;53784;52.630;4.896;2022-07-18T10:15:23;4.50;;;4.20;;
66874;SDS011;53784;52.630;4.896;2022-07-18T10:17:52;5.20;;;4.80;;
66874;SDS011;53784;52.630;4.896;2022-07-18T10:20:17;4.70;;;4.40;;
66874;SDS011;53784;52.630;4.896;2022-07-18T10:22:43;4.10;;;3.80;;
66874;SDS011;53784;52.630;4.896;2022-07-18T10:25:10;4.30;;;4.00;;
66874;SDS011;53784;52.630;4.896;2022-07-18T10:27:50;4.10;;;3.80;;
66874;SDS011;53784;52.630;4.896;2022-07-18T10:30:17;4.10;;;3.80;;
66874;SDS011;53784;52.630;4.896;2022-07-18T10:32:44;3.20;;;2.95;;
66874;SDS011;53784;52.630;4.896;2022-07-18T10:35:10;2.50;;;2.30;;
66874;SDS011;53784;52.630;4.896;2022-07-18T10:37:40;2.30;;;2.10;;
66874;SDS011;53784;52.630;4.896;2022-07-18T10:40:24;2.50;;;2.30;;
66874;SDS011;53784;52.630;4.896;2022-07-18T10:45:54;3.70;;;3.40;;
66874;SDS011;53784;52.630;4.896;2022-07-18T10:48:46;3.80;;;3.50;;
66874;SDS011;53784;52.630;4.896;2022-07-18T10:51:13;4.07;;;3.78;;
66874;SDS011;53784;52.630;4.896;2022-07-18T10:56:18;4.63;;;4.32;;
66874;SDS011;53784;52.630;4.896;2022-07-18T10:58:43;4.70;;;4.40;;
66874;SDS011;53784;52.630;4.896;2022-07-18T11:01:13;4.35;;;4.05;;
66874;SDS011;53784;52.630;4.896;2022-07-18T11:03:42;4.10;;;3.80;;
66874;SDS011;53784;52.630;4.896;2022-07-18T11:06:07;4.20;;;3.90;;
66874;SDS011;53784;52.630;4.896;2022-07-18T11:08:32;4.17;;;3.87;;
66874;SDS011;53784;52.630;4.896;2022-07-18T11:18:32;3.63;;;3.33;;
66874;SDS011;53784;52.630;4.896;2022-07-18T11:20:58;3.40;;;3.10;;
66874;SDS011;53784;52.630;4.896;2022-07-18T11:23:27;3.10;;;2.90;;
66874;SDS011;53784;52.630;4.896;2022-07-18T11:25:54;2.90;;;2.70;;
66874;SDS011;53784;52.630;4.896;2022-07-18T11:28:21;2.90;;;2.70;;
66874;SDS011;53784;52.630;4.896;2022-07-18T11:30:58;3.70;;;3.40;;
66874;SDS011;53784;52.630;4.896;2022-07-18T11:33:26;2.80;;;2.60;;
66874;SDS011;53784;52.630;4.896;2022-07-18T11:36:01;3.10;;;2.90;;
66874;SDS011;53784;52.630;4.896;2022-07-18T11:40:56;2.90;;;2.70;;
66874;SDS011;53784;52.630;4.896;2022-07-18T11:43:24;2.70;;;2.50;;
66874;SDS011;53784;52.630;4.896;2022-07-18T11:46:06;3.15;;;2.80;;
66874;SDS011;53784;52.630;4.896;2022-07-18T11:48:34;3.05;;;2.85;;
66874;SDS011;53784;52.630;4.896;2022-07-18T11:51:00;3.30;;;3.00;;
66874;SDS011;53784;52.630;4.896;2022-07-18T11:53:25;3.40;;;3.10;;
66874;SDS011;53784;52.630;4.896;2022-07-18T11:55:52;3.50;;;3.20;;
66874;SDS011;53784;52.630;4.896;2022-07-18T11:58:18;3.25;;;2.97;;
66874;SDS011;53784;52.630;4.896;2022-07-18T12:00:43;2.73;;;2.53;;
66874;SDS011;53784;52.630;4.896;2022-07-18T12:03:11;2.70;;;2.50;;
66874;SDS011;53784;52.630;4.896;2022-07-18T12:05:39;2.25;;;2.05;;
66874;SDS011;53784;52.630;4.896;2022-07-18T12:08:23;2.20;;;1.90;;
66874;SDS011;53784;52.630;4.896;2022-07-18T12:16:24;2.10;;;1.70;;
66874;SDS011;53784;52.630;4.896;2022-07-18T12:18:57;2.00;;;1.60;;
66874;SDS011;53784;52.630;4.896;2022-07-18T12:21:24;2.25;;;1.65;;
66874;SDS011;53784;52.630;4.896;2022-07-18T12:23:49;1.90;;;1.50;;
66874;SDS011;53784;52.630;4.896;2022-07-18T12:26:28;2.00;;;1.60;;
66874;SDS011;53784;52.630;4.896;2022-07-18T12:29:07;2.10;;;1.75;;
66874;SDS011;53784;52.630;4.896;2022-07-18T12:31:37;2.00;;;1.60;;
66874;SDS011;53784;52.630;4.896;2022-07-18T12:34:15;2.13;;;1.80;;
66874;SDS011;53784;52.630;4.896;2022-07-18T12:36:57;2.10;;;1.90;;
66874;SDS011;53784;52.630;4.896;2022-07-18T12:39:29;2.20;;;1.80;;
66874;SDS011;53784;52.630;4.896;2022-07-18T12:41:56;2.00;;;1.60;;
66874;SDS011;53784;52.630;4.896;2022-07-18T12:44:22;2.00;;;1.67;;
66874;SDS011;53784;52.630;4.896;2022-07-18T12:46:47;1.90;;;1.50;;
66874;SDS011;53784;52.630;4.896;2022-07-18T12:49:13;2.10;;;1.63;;
66874;SDS011;53784;52.630;4.896;2022-07-18T12:51:38;1.70;;;1.10;;
66874;SDS011;53784;52.630;4.896;2022-07-18T12:54:03;1.60;;;0.90;;
66874;SDS011;53784;52.630;4.896;2022-07-18T12:56:29;1.30;;;0.70;;
66874;SDS011;53784;52.630;4.896;2022-07-18T12:58:54;1.20;;;0.70;;
66874;SDS011;53784;52.630;4.896;2022-07-18T13:01:19;1.10;;;0.70;;
66874;SDS011;53784;52.630;4.896;2022-07-18T13:03:44;0.60;;;0.50;;
66874;SDS011;53784;52.630;4.896;2022-07-18T13:06:10;0.60;;;0.40;;
66874;SDS011;53784;52.630;4.896;2022-07-18T13:08:35;0.50;;;0.40;;
66874;SDS011;53784;52.630;4.896;2022-07-18T13:11:01;0.40;;;0.40;;
66874;SDS011;53784;52.630;4.896;2022-07-18T13:13:26;0.40;;;0.40;;
66874;SDS011;53784;52.630;4.896;2022-07-18T13:15:51;0.40;;;0.40;;
66874;SDS011;53784;52.630;4.896;2022-07-18T13:18:17;0.40;;;0.40;;
66874;SDS011;53784;52.630;4.896;2022-07-18T13:20:42;0.40;;;0.40;;
66874;SDS011;53784;52.630;4.896;2022-07-18T13:23:07;0.30;;;0.30;;
66874;SDS011;53784;52.630;4.896;2022-07-18T13:25:35;1.15;;;0.88;;
66874;SDS011;53784;52.630;4.896;2022-07-18T13:28:00;0.65;;;0.52;;
66874;SDS011;53784;52.630;4.896;2022-07-18T13:30:25;0.35;;;0.35;;
66874;SDS011;53784;52.630;4.896;2022-07-18T13:32:51;0.55;;;0.40;;
66874;SDS011;53784;52.630;4.896;2022-07-18T13:35:16;0.50;;;0.43;;
66874;SDS011;53784;52.630;4.896;2022-07-18T13:37:42;0.30;;;0.30;;
66874;SDS011;53784;52.630;4.896;2022-07-18T13:40:07;0.40;;;0.40;;
66874;SDS011;53784;52.630;4.896;2022-07-18T13:42:34;0.35;;;0.30;;
66874;SDS011;53784;52.630;4.896;2022-07-18T13:45:00;0.30;;;0.30;;
66874;SDS011;53784;52.630;4.896;2022-07-18T13:47:26;0.30;;;0.30;;
66874;SDS011;53784;52.630;4.896;2022-07-18T13:49:51;0.30;;;0.30;;
66874;SDS011;53784;52.630;4.896;2022-07-18T13:52:16;0.30;;;0.30;;
66874;SDS011;53784;52.630;4.896;2022-07-18T13:54:41;0.57;;;0.35;;
66874;SDS011;53784;52.630;4.896;2022-07-18T13:57:07;0.40;;;0.40;;
66874;SDS011;53784;52.630;4.896;2022-07-18T13:59:32;0.30;;;0.30;;
66874;SDS011;53784;52.630;4.896;2022-07-18T14:01:58;0.38;;;0.38;;
66874;SDS011;53784;52.630;4.896;2022-07-18T14:04:23;0.40;;;0.40;;
66874;SDS011;53784;52.630;4.896;2022-07-18T14:06:48;0.20;;;0.20;;
66874;SDS011;53784;52.630;4.896;2022-07-18T14:09:14;0.30;;;0.30;;
66874;SDS011;53784;52.630;4.896;2022-07-18T14:11:39;0.30;;;0.30;;
66874;SDS011;53784;52.630;4.896;2022-07-18T14:14:05;0.40;;;0.32;;
66874;SDS011;53784;52.630;4.896;2022-07-18T14:16:30;0.30;;;0.30;;
66874;SDS011;53784;52.630;4.896;2022-07-18T14:18:56;0.30;;;0.30;;
66874;SDS011;53784;52.630;4.896;2022-07-18T14:21:21;0.30;;;0.30;;
66874;SDS011;53784;52.630;4.896;2022-07-18T14:23:47;0.30;;;0.30;;
66874;SDS011;53784;52.630;4.896;2022-07-18T14:26:12;0.30;;;0.30;;
66874;SDS011;53784;52.630;4.896;2022-07-18T14:28:37;0.30;;;0.30;;
66874;SDS011;53784;52.630;4.896;2022-07-18T14:31:03;0.40;;;0.30;;
66874;SDS011;53784;52.630;4.896;2022-07-18T14:33:28;0.30;;;0.30;;
66874;SDS011;53784;52.630;4.896;2022-07-18T14:35:53;0.30;;;0.30;;
66874;SDS011;53784;52.630;4.896;2022-07-18T14:38:19;0.30;;;0.30;;
66874;SDS011;53784;52.630;4.896;2022-07-18T14:40:44;0.30;;;0.30;;
66874;SDS011;53784;52.630;4.896;2022-07-18T14:43:09;0.57;;;0.40;;
66874;SDS011;53784;52.630;4.896;2022-07-18T14:45:35;0.30;;;0.30;;
66874;SDS011;53784;52.630;4.896;2022-07-18T14:48:00;0.30;;;0.30;;
66874;SDS011;53784;52.630;4.896;2022-07-18T14:50:26;0.32;;;0.32;;
66874;SDS011;53784;52.630;4.896;2022-07-18T14:52:51;0.68;;;0.55;;
66874;SDS011;53784;52.630;4.896;2022-07-18T14:55:16;0.30;;;0.30;;
66874;SDS011;53784;52.630;4.896;2022-07-18T14:57:41;0.35;;;0.30;;
66874;SDS011;53784;52.630;4.896;2022-07-18T15:00:07;0.50;;;0.50;;
66874;SDS011;53784;52.630;4.896;2022-07-18T15:02:34;0.30;;;0.30;;
66874;SDS011;53784;52.630;4.896;2022-07-18T15:05:00;0.28;;;0.28;;
66874;SDS011;53784;52.630;4.896;2022-07-18T15:07:26;0.30;;;0.30;;
66874;SDS011;53784;52.630;4.896;2022-07-18T15:09:51;0.60;;;0.50;;